sensor_id;sensor_type;location;lat;lon;timestamp;P1;durP1;ratioP1;P2;durP2;ratioP2
84474;SDS011;74699;43.068;0.152;2024-02-21T00:02:22;4.63;;;1.63;;
84474;SDS011;74699;43.068;0.152;2024-02-21T00:04:49;4.68;;;1.70;;
84474;SDS011;74699;43.068;0.152;2024-02-21T00:07:15;4.75;;;2.00;;
84474;SDS011;74699;43.068;0.152;2024-02-21T00:09:41;5.00;;;2.00;;
84474;SDS011;74699;43.068;0.152;2024-02-21T00:12:07;4.72;;;1.77;;
84474;SDS011;74699;43.068;0.152;2024-02-21T00:14:33;3.65;;;1.42;;
84474;SDS011;74699;43.068;0.152;2024-02-21T00:16:59;3.72;;;1.45;;
84474;SDS011;74699;43.068;0.152;2024-02-21T00:19:25;5.85;;;1.83;;
84474;SDS011;74699;43.068;0.152;2024-02-21T00:21:51;3.53;;;1.25;;
84474;SDS011;74699;43.068;0.152;2024-02-21T00:24:17;4.22;;;1.40;;
84474;SDS011;74699;43.068;0.152;2024-02-21T00:26:43;3.15;;;0.93;;
84474;SDS011;74699;43.068;0.152;2024-02-21T00:29:09;3.05;;;0.85;;
84474;SDS011;74699;43.068;0.152;2024-02-21T00:31:35;3.03;;;0.90;;
84474;SDS011;74699;43.068;0.152;2024-02-21T00:34:01;2.38;;;0.45;;
84474;SDS011;74699;43.068;0.152;2024-02-21T00:36:27;3.05;;;0.98;;
84474;SDS011;74699;43.068;0.152;2024-02-21T00:38:53;2.75;;;0.77;;
84474;SDS011;74699;43.068;0.152;2024-02-21T00:41:19;2.55;;;0.50;;
84474;SDS011;74699;43.068;0.152;2024-02-21T00:43:46;3.05;;;0.82;;
84474;SDS011;74699;43.068;0.152;2024-02-21T00:46:13;2.60;;;0.63;;
84474;SDS011;74699;43.068;0.152;2024-02-21T00:48:39;2.08;;;0.50;;
84474;SDS011;74699;43.068;0.152;2024-02-21T00:51:05;1.55;;;0.50;;
84474;SDS011;74699;43.068;0.152;2024-02-21T00:53:31;1.63;;;0.50;;
84474;SDS011;74699;43.068;0.152;2024-02-21T00:55:57;3.75;;;0.80;;
84474;SDS011;74699;43.068;0.152;2024-02-21T00:58:23;2.22;;;0.65;;
84474;SDS011;74699;43.068;0.152;2024-02-21T01:00:49;1.67;;;0.43;;
84474;SDS011;74699;43.068;0.152;2024-02-21T01:03:15;3.22;;;0.50;;
84474;SDS011;74699;43.068;0.152;2024-02-21T01:05:42;1.50;;;0.40;;
84474;SDS011;74699;43.068;0.152;2024-02-21T01:08:08;1.75;;;0.47;;
84474;SDS011;74699;43.068;0.152;2024-02-21T01:10:34;0.30;;;0.10;;
84474;SDS011;74699;43.068;0.152;2024-02-21T01:13:00;2.10;;;0.82;;
84474;SDS011;74699;43.068;0.152;2024-02-21T01:15:26;2.08;;;0.40;;
84474;SDS011;74699;43.068;0.152;2024-02-21T01:17:52;1.42;;;0.32;;
84474;SDS011;74699;43.068;0.152;2024-02-21T01:20:20;2.08;;;0.40;;
84474;SDS011;74699;43.068;0.152;2024-02-21T01:22:46;2.25;;;0.43;;
84474;SDS011;74699;43.068;0.152;2024-02-21T01:25:12;1.42;;;0.40;;
84474;SDS011;74699;43.068;0.152;2024-02-21T01:27:38;1.38;;;0.30;;
84474;SDS011;74699;43.068;0.152;2024-02-21T01:30:04;1.38;;;0.30;;
84474;SDS011;74699;43.068;0.152;2024-02-21T01:32:30;2.10;;;0.30;;
84474;SDS011;74699;43.068;0.152;2024-02-21T01:34:57;3.03;;;0.35;;
84474;SDS011;74699;43.068;0.152;2024-02-21T01:37:23;2.08;;;0.30;;
84474;SDS011;74699;43.068;0.152;2024-02-21T01:39:49;1.30;;;0.32;;
84474;SDS011;74699;43.068;0.152;2024-02-21T01:42:15;1.20;;;0.30;;
84474;SDS011;74699;43.068;0.152;2024-02-21T01:44:41;2.63;;;0.80;;
84474;SDS011;74699;43.068;0.152;2024-02-21T01:47:07;3.92;;;0.70;;
84474;SDS011;74699;43.068;0.152;2024-02-21T01:49:33;1.08;;;0.38;;
84474;SDS011;74699;43.068;0.152;2024-02-21T01:52:00;1.83;;;0.50;;
84474;SDS011;74699;43.068;0.152;2024-02-21T01:54:27;1.50;;;0.50;;
84474;SDS011;74699;43.068;0.152;2024-02-21T01:56:56;2.15;;;0.50;;
84474;SDS011;74699;43.068;0.152;2024-02-21T01:59:22;1.58;;;0.70;;
84474;SDS011;74699;43.068;0.152;2024-02-21T02:01:48;1.70;;;0.30;;
84474;SDS011;74699;43.068;0.152;2024-02-21T02:04:15;1.83;;;0.50;;
84474;SDS011;74699;43.068;0.152;2024-02-21T02:06:41;0.50;;;0.20;;
84474;SDS011;74699;43.068;0.152;2024-02-21T02:09:08;1.00;;;0.30;;
84474;SDS011;74699;43.068;0.152;2024-02-21T02:11:34;1.35;;;0.30;;
84474;SDS011;74699;43.068;0.152;2024-02-21T02:14:00;1.50;;;0.30;;
84474;SDS011;74699;43.068;0.152;2024-02-21T02:16:26;1.40;;;0.35;;
84474;SDS011;74699;43.068;0.152;2024-02-21T02:18:52;2.17;;;0.40;;
84474;SDS011;74699;43.068;0.152;2024-02-21T02:21:39;1.52;;;0.55;;
84474;SDS011;74699;43.068;0.152;2024-02-21T02:24:05;1.13;;;0.20;;
84474;SDS011;74699;43.068;0.152;2024-02-21T02:26:31;0.47;;;0.30;;
84474;SDS011;74699;43.068;0.152;2024-02-21T02:28:57;1.13;;;0.28;;
84474;SDS011;74699;43.068;0.152;2024-02-21T02:31:23;1.90;;;0.30;;
84474;SDS011;74699;43.068;0.152;2024-02-21T02:33:49;1.65;;;0.30;;
84474;SDS011;74699;43.068;0.152;2024-02-21T02:36:15;0.65;;;0.20;;
84474;SDS011;74699;43.068;0.152;2024-02-21T02:38:42;1.60;;;0.40;;
84474;SDS011;74699;43.068;0.152;2024-02-21T02:41:08;2.03;;;0.30;;
84474;SDS011;74699;43.068;0.152;2024-02-21T02:43:34;1.27;;;0.35;;
84474;SDS011;74699;43.068;0.152;2024-02-21T02:46:01;0.50;;;0.13;;
84474;SDS011;74699;43.068;0.152;2024-02-21T02:48:28;1.10;;;0.20;;
84474;SDS011;74699;43.068;0.152;2024-02-21T02:50:54;1.70;;;0.40;;
84474;SDS011;74699;43.068;0.152;2024-02-21T02:53:20;0.88;;;0.30;;
84474;SDS011;74699;43.068;0.152;2024-02-21T02:55:46;1.40;;;0.25;;
84474;SDS011;74699;43.068;0.152;2024-02-21T02:58:12;2.38;;;0.40;;
84474;SDS011;74699;43.068;0.152;2024-02-21T03:00:38;1.58;;;0.32;;
84474;SDS011;74699;43.068;0.152;2024-02-21T03:03:04;1.92;;;0.50;;
84474;SDS011;74699;43.068;0.152;2024-02-21T03:05:30;1.25;;;0.40;;
84474;SDS011;74699;43.068;0.152;2024-02-21T03:07:56;2.22;;;0.50;;
84474;SDS011;74699;43.068;0.152;2024-02-21T03:10:23;1.75;;;0.47;;
84474;SDS011;74699;43.068;0.152;2024-02-21T03:12:49;1.73;;;0.30;;
84474;SDS011;74699;43.068;0.152;2024-02-21T03:15:18;2.83;;;0.60;;
84474;SDS011;74699;43.068;0.152;2024-02-21T03:17:44;1.42;;;0.30;;
84474;SDS011;74699;43.068;0.152;2024-02-21T03:20:10;1.27;;;0.20;;
84474;SDS011;74699;43.068;0.152;2024-02-21T03:22:36;1.15;;;0.25;;
84474;SDS011;74699;43.068;0.152;2024-02-21T03:25:03;1.30;;;0.40;;
84474;SDS011;74699;43.068;0.152;2024-02-21T03:27:29;1.98;;;0.40;;
84474;SDS011;74699;43.068;0.152;2024-02-21T03:29:55;0.80;;;0.20;;
84474;SDS011;74699;43.068;0.152;2024-02-21T03:32:21;0.88;;;0.20;;
84474;SDS011;74699;43.068;0.152;2024-02-21T03:34:47;1.92;;;0.55;;
84474;SDS011;74699;43.068;0.152;2024-02-21T03:37:13;2.35;;;0.60;;
84474;SDS011;74699;43.068;0.152;2024-02-21T03:39:39;1.73;;;0.38;;
84474;SDS011;74699;43.068;0.152;2024-02-21T03:42:05;1.40;;;0.45;;
84474;SDS011;74699;43.068;0.152;2024-02-21T03:44:31;1.92;;;0.20;;
84474;SDS011;74699;43.068;0.152;2024-02-21T03:46:58;0.90;;;0.20;;
84474;SDS011;74699;43.068;0.152;2024-02-21T03:49:25;1.80;;;0.50;;
84474;SDS011;74699;43.068;0.152;2024-02-21T03:51:51;1.38;;;0.30;;
84474;SDS011;74699;43.068;0.152;2024-02-21T03:54:17;0.95;;;0.20;;
84474;SDS011;74699;43.068;0.152;2024-02-21T03:56:43;0.30;;;0.13;;
84474;SDS011;74699;43.068;0.152;2024-02-21T03:59:09;0.50;;;0.13;;
84474;SDS011;74699;43.068;0.152;2024-02-21T04:01:35;0.77;;;0.30;;
84474;SDS011;74699;43.068;0.152;2024-02-21T04:04:01;0.30;;;0.10;;
84474;SDS011;74699;43.068;0.152;2024-02-21T04:06:28;1.13;;;0.35;;
84474;SDS011;74699;43.068;0.152;2024-02-21T04:08:54;0.60;;;0.10;;
84474;SDS011;74699;43.068;0.152;2024-02-21T04:11:20;0.25;;;0.10;;
84474;SDS011;74699;43.068;0.152;2024-02-21T04:13:46;0.35;;;0.10;;
84474;SDS011;74699;43.068;0.152;2024-02-21T04:16:15;1.55;;;0.47;;
84474;SDS011;74699;43.068;0.152;2024-02-21T04:18:41;1.23;;;0.30;;
84474;SDS011;74699;43.068;0.152;2024-02-21T04:21:07;1.50;;;0.40;;
84474;SDS011;74699;43.068;0.152;2024-02-21T04:23:33;1.08;;;0.22;;
84474;SDS011;74699;43.068;0.152;2024-02-21T04:25:59;0.63;;;0.20;;
84474;SDS011;74699;43.068;0.152;2024-02-21T04:28:25;1.27;;;0.47;;
84474;SDS011;74699;43.068;0.152;2024-02-21T04:30:51;0.70;;;0.20;;
84474;SDS011;74699;43.068;0.152;2024-02-21T04:33:18;1.00;;;0.30;;
84474;SDS011;74699;43.068;0.152;2024-02-21T04:35:44;1.35;;;0.20;;
84474;SDS011;74699;43.068;0.152;2024-02-21T04:38:10;1.75;;;0.17;;
84474;SDS011;74699;43.068;0.152;2024-02-21T04:40:36;0.38;;;0.10;;
84474;SDS011;74699;43.068;0.152;2024-02-21T04:43:02;0.50;;;0.20;;
84474;SDS011;74699;43.068;0.152;2024-02-21T04:45:28;1.05;;;0.28;;
84474;SDS011;74699;43.068;0.152;2024-02-21T04:47:54;0.85;;;0.15;;
84474;SDS011;74699;43.068;0.152;2024-02-21T04:50:20;1.08;;;0.20;;
84474;SDS011;74699;43.068;0.152;2024-02-21T04:52:46;1.38;;;0.28;;
84474;SDS011;74699;43.068;0.152;2024-02-21T04:55:12;0.88;;;0.13;;
84474;SDS011;74699;43.068;0.152;2024-02-21T04:57:38;1.90;;;0.30;;
84474;SDS011;74699;43.068;0.152;2024-02-21T05:00:04;1.73;;;0.20;;
84474;SDS011;74699;43.068;0.152;2024-02-21T05:02:31;1.10;;;0.20;;
84474;SDS011;74699;43.068;0.152;2024-02-21T05:04:57;0.77;;;0.10;;
84474;SDS011;74699;43.068;0.152;2024-02-21T05:07:23;1.15;;;0.22;;
84474;SDS011;74699;43.068;0.152;2024-02-21T05:09:49;1.73;;;0.30;;
84474;SDS011;74699;43.068;0.152;2024-02-21T05:12:15;0.63;;;0.15;;
84474;SDS011;74699;43.068;0.152;2024-02-21T05:14:41;0.45;;;0.13;;
84474;SDS011;74699;43.068;0.152;2024-02-21T05:17:07;0.95;;;0.20;;
84474;SDS011;74699;43.068;0.152;2024-02-21T05:19:33;0.85;;;0.13;;
84474;SDS011;74699;43.068;0.152;2024-02-21T05:21:59;0.93;;;0.32;;
84474;SDS011;74699;43.068;0.152;2024-02-21T05:24:25;0.65;;;0.30;;
84474;SDS011;74699;43.068;0.152;2024-02-21T05:26:53;0.98;;;0.22;;
84474;SDS011;74699;43.068;0.152;2024-02-21T05:29:19;0.90;;;0.20;;
84474;SDS011;74699;43.068;0.152;2024-02-21T05:34:18;1.83;;;0.40;;
84474;SDS011;74699;43.068;0.152;2024-02-21T05:36:44;0.88;;;0.20;;
84474;SDS011;74699;43.068;0.152;2024-02-21T05:39:11;1.25;;;0.20;;
84474;SDS011;74699;43.068;0.152;2024-02-21T05:41:37;1.10;;;0.32;;
84474;SDS011;74699;43.068;0.152;2024-02-21T05:44:03;1.10;;;0.20;;
84474;SDS011;74699;43.068;0.152;2024-02-21T05:46:29;1.58;;;0.40;;
84474;SDS011;74699;43.068;0.152;2024-02-21T05:48:55;1.10;;;0.17;;
84474;SDS011;74699;43.068;0.152;2024-02-21T05:51:21;1.48;;;0.30;;
84474;SDS011;74699;43.068;0.152;2024-02-21T05:53:47;1.33;;;0.20;;
84474;SDS011;74699;43.068;0.152;2024-02-21T05:56:13;1.90;;;0.40;;
84474;SDS011;74699;43.068;0.152;2024-02-21T05:58:40;1.00;;;0.28;;
84474;SDS011;74699;43.068;0.152;2024-02-21T06:01:06;1.77;;;0.17;;
84474;SDS011;74699;43.068;0.152;2024-02-21T06:03:33;0.95;;;0.30;;
84474;SDS011;74699;43.068;0.152;2024-02-21T06:05:59;0.98;;;0.20;;
84474;SDS011;74699;43.068;0.152;2024-02-21T06:08:25;0.85;;;0.20;;
84474;SDS011;74699;43.068;0.152;2024-02-21T06:10:51;0.45;;;0.08;;
84474;SDS011;74699;43.068;0.152;2024-02-21T06:13:19;0.98;;;0.20;;
84474;SDS011;74699;43.068;0.152;2024-02-21T06:15:46;0.28;;;0.10;;
84474;SDS011;74699;43.068;0.152;2024-02-21T06:18:12;1.25;;;0.22;;
84474;SDS011;74699;43.068;0.152;2024-02-21T06:20:38;0.95;;;0.40;;
84474;SDS011;74699;43.068;0.152;2024-02-21T06:23:06;2.13;;;0.50;;
84474;SDS011;74699;43.068;0.152;2024-02-21T06:25:32;0.70;;;0.28;;
84474;SDS011;74699;43.068;0.152;2024-02-21T06:27:58;0.45;;;0.13;;
84474;SDS011;74699;43.068;0.152;2024-02-21T06:30:24;2.53;;;0.38;;
84474;SDS011;74699;43.068;0.152;2024-02-21T06:32:50;0.80;;;0.20;;
84474;SDS011;74699;43.068;0.152;2024-02-21T06:35:16;2.33;;;0.30;;
84474;SDS011;74699;43.068;0.152;2024-02-21T06:37:42;1.13;;;0.20;;
84474;SDS011;74699;43.068;0.152;2024-02-21T06:40:10;0.63;;;0.22;;
84474;SDS011;74699;43.068;0.152;2024-02-21T06:42:36;0.63;;;0.20;;
84474;SDS011;74699;43.068;0.152;2024-02-21T06:45:02;2.30;;;0.52;;
84474;SDS011;74699;43.068;0.152;2024-02-21T06:47:28;1.35;;;0.50;;
84474;SDS011;74699;43.068;0.152;2024-02-21T06:49:54;1.90;;;0.45;;
84474;SDS011;74699;43.068;0.152;2024-02-21T06:52:20;1.95;;;0.45;;
84474;SDS011;74699;43.068;0.152;2024-02-21T06:54:47;1.52;;;0.38;;
84474;SDS011;74699;43.068;0.152;2024-02-21T06:57:13;2.17;;;0.82;;
84474;SDS011;74699;43.068;0.152;2024-02-21T06:59:40;1.95;;;0.50;;
84474;SDS011;74699;43.068;0.152;2024-02-21T07:02:07;1.15;;;0.40;;
84474;SDS011;74699;43.068;0.152;2024-02-21T07:04:33;2.38;;;0.52;;
84474;SDS011;74699;43.068;0.152;2024-02-21T07:06:59;3.70;;;1.38;;
84474;SDS011;74699;43.068;0.152;2024-02-21T07:09:25;1.92;;;0.35;;
84474;SDS011;74699;43.068;0.152;2024-02-21T07:11:53;1.45;;;0.50;;
84474;SDS011;74699;43.068;0.152;2024-02-21T07:14:19;2.42;;;0.60;;
84474;SDS011;74699;43.068;0.152;2024-02-21T07:16:45;1.15;;;0.40;;
84474;SDS011;74699;43.068;0.152;2024-02-21T07:19:11;1.08;;;0.20;;
84474;SDS011;74699;43.068;0.152;2024-02-21T07:21:37;2.58;;;0.45;;
84474;SDS011;74699;43.068;0.152;2024-02-21T07:24:06;1.73;;;0.40;;
84474;SDS011;74699;43.068;0.152;2024-02-21T07:26:32;1.67;;;0.50;;
84474;SDS011;74699;43.068;0.152;2024-02-21T07:28:58;2.45;;;0.45;;
84474;SDS011;74699;43.068;0.152;2024-02-21T07:31:25;1.23;;;0.38;;
84474;SDS011;74699;43.068;0.152;2024-02-21T07:33:51;3.13;;;0.70;;
84474;SDS011;74699;43.068;0.152;2024-02-21T07:36:25;1.27;;;0.38;;
84474;SDS011;74699;43.068;0.152;2024-02-21T07:41:17;1.77;;;0.43;;
84474;SDS011;74699;43.068;0.152;2024-02-21T07:43:43;1.67;;;0.30;;
84474;SDS011;74699;43.068;0.152;2024-02-21T07:46:09;1.77;;;0.57;;
84474;SDS011;74699;43.068;0.152;2024-02-21T07:48:35;1.75;;;0.40;;
84474;SDS011;74699;43.068;0.152;2024-02-21T07:51:01;0.95;;;0.32;;
84474;SDS011;74699;43.068;0.152;2024-02-21T07:53:27;2.35;;;0.73;;
84474;SDS011;74699;43.068;0.152;2024-02-21T07:55:53;1.95;;;0.70;;
84474;SDS011;74699;43.068;0.152;2024-02-21T07:58:19;1.55;;;0.45;;
84474;SDS011;74699;43.068;0.152;2024-02-21T08:00:45;0.98;;;0.20;;
84474;SDS011;74699;43.068;0.152;2024-02-21T08:03:11;1.80;;;0.50;;
84474;SDS011;74699;43.068;0.152;2024-02-21T08:05:38;1.88;;;0.60;;
84474;SDS011;74699;43.068;0.152;2024-02-21T08:08:04;1.50;;;0.43;;
84474;SDS011;74699;43.068;0.152;2024-02-21T08:10:30;0.68;;;0.40;;
84474;SDS011;74699;43.068;0.152;2024-02-21T08:12:56;1.80;;;0.55;;
84474;SDS011;74699;43.068;0.152;2024-02-21T08:15:22;2.80;;;0.50;;
84474;SDS011;74699;43.068;0.152;2024-02-21T08:17:53;2.05;;;0.40;;
84474;SDS011;74699;43.068;0.152;2024-02-21T08:20:23;1.52;;;0.60;;
84474;SDS011;74699;43.068;0.152;2024-02-21T08:22:50;1.67;;;0.43;;
84474;SDS011;74699;43.068;0.152;2024-02-21T08:25:16;1.80;;;0.43;;
84474;SDS011;74699;43.068;0.152;2024-02-21T08:27:42;1.20;;;0.30;;
84474;SDS011;74699;43.068;0.152;2024-02-21T08:30:08;1.23;;;0.50;;
84474;SDS011;74699;43.068;0.152;2024-02-21T08:32:34;1.73;;;0.60;;
84474;SDS011;74699;43.068;0.152;2024-02-21T08:35:01;1.63;;;0.50;;
84474;SDS011;74699;43.068;0.152;2024-02-21T08:37:28;1.33;;;0.40;;
84474;SDS011;74699;43.068;0.152;2024-02-21T08:39:54;2.08;;;0.60;;
84474;SDS011;74699;43.068;0.152;2024-02-21T08:42:20;1.92;;;0.45;;
84474;SDS011;74699;43.068;0.152;2024-02-21T08:44:46;1.60;;;0.63;;
84474;SDS011;74699;43.068;0.152;2024-02-21T08:47:12;1.70;;;0.60;;
84474;SDS011;74699;43.068;0.152;2024-02-21T08:49:38;2.70;;;0.70;;
84474;SDS011;74699;43.068;0.152;2024-02-21T08:52:04;2.00;;;0.60;;
84474;SDS011;74699;43.068;0.152;2024-02-21T08:54:31;1.75;;;0.50;;
84474;SDS011;74699;43.068;0.152;2024-02-21T08:57:00;4.00;;;0.80;;
84474;SDS011;74699;43.068;0.152;2024-02-21T08:59:26;2.13;;;0.68;;
84474;SDS011;74699;43.068;0.152;2024-02-21T09:01:52;2.00;;;0.60;;
84474;SDS011;74699;43.068;0.152;2024-02-21T09:04:18;1.58;;;0.60;;
84474;SDS011;74699;43.068;0.152;2024-02-21T09:06:44;2.28;;;0.55;;
84474;SDS011;74699;43.068;0.152;2024-02-21T09:09:11;1.75;;;0.60;;
84474;SDS011;74699;43.068;0.152;2024-02-21T09:11:37;2.17;;;0.70;;
84474;SDS011;74699;43.068;0.152;2024-02-21T09:14:05;1.77;;;0.50;;
84474;SDS011;74699;43.068;0.152;2024-02-21T09:16:34;2.38;;;0.70;;
84474;SDS011;74699;43.068;0.152;2024-02-21T09:19:00;2.13;;;0.60;;
84474;SDS011;74699;43.068;0.152;2024-02-21T09:21:26;2.40;;;0.85;;
84474;SDS011;74699;43.068;0.152;2024-02-21T09:23:53;1.98;;;0.60;;
84474;SDS011;74699;43.068;0.152;2024-02-21T09:26:19;2.22;;;0.70;;
84474;SDS011;74699;43.068;0.152;2024-02-21T09:28:45;1.83;;;0.60;;
84474;SDS011;74699;43.068;0.152;2024-02-21T09:31:11;1.80;;;0.50;;
84474;SDS011;74699;43.068;0.152;2024-02-21T09:33:37;2.28;;;0.68;;
84474;SDS011;74699;43.068;0.152;2024-02-21T09:36:03;2.22;;;0.55;;
84474;SDS011;74699;43.068;0.152;2024-02-21T09:38:33;2.95;;;0.68;;
84474;SDS011;74699;43.068;0.152;2024-02-21T09:40:59;2.38;;;0.60;;
84474;SDS011;74699;43.068;0.152;2024-02-21T09:43:26;2.50;;;0.70;;
84474;SDS011;74699;43.068;0.152;2024-02-21T09:45:52;2.80;;;0.50;;
84474;SDS011;74699;43.068;0.152;2024-02-21T09:48:33;2.95;;;0.70;;
84474;SDS011;74699;43.068;0.152;2024-02-21T09:51:04;2.72;;;0.73;;
84474;SDS011;74699;43.068;0.152;2024-02-21T09:53:31;2.22;;;0.65;;
84474;SDS011;74699;43.068;0.152;2024-02-21T09:55:58;2.58;;;0.90;;
84474;SDS011;74699;43.068;0.152;2024-02-21T09:58:24;2.67;;;0.73;;
84474;SDS011;74699;43.068;0.152;2024-02-21T10:00:52;3.03;;;0.60;;
84474;SDS011;74699;43.068;0.152;2024-02-21T10:03:18;2.15;;;0.80;;
84474;SDS011;74699;43.068;0.152;2024-02-21T10:05:48;2.15;;;0.60;;
84474;SDS011;74699;43.068;0.152;2024-02-21T10:08:17;2.10;;;0.65;;
84474;SDS011;74699;43.068;0.152;2024-02-21T10:10:44;2.35;;;0.68;;
84474;SDS011;74699;43.068;0.152;2024-02-21T10:13:10;2.08;;;0.60;;
84474;SDS011;74699;43.068;0.152;2024-02-21T10:15:37;1.30;;;0.40;;
84474;SDS011;74699;43.068;0.152;2024-02-21T10:18:03;1.70;;;0.50;;
84474;SDS011;74699;43.068;0.152;2024-02-21T10:20:29;2.08;;;0.57;;
84474;SDS011;74699;43.068;0.152;2024-02-21T10:23:02;2.15;;;0.75;;
84474;SDS011;74699;43.068;0.152;2024-02-21T10:25:28;1.83;;;0.60;;
84474;SDS011;74699;43.068;0.152;2024-02-21T10:27:55;4.57;;;1.15;;
84474;SDS011;74699;43.068;0.152;2024-02-21T10:30:21;2.47;;;0.60;;
84474;SDS011;74699;43.068;0.152;2024-02-21T10:32:48;2.15;;;0.63;;
84474;SDS011;74699;43.068;0.152;2024-02-21T10:35:15;2.90;;;0.70;;
84474;SDS011;74699;43.068;0.152;2024-02-21T10:37:50;2.20;;;0.55;;
84474;SDS011;74699;43.068;0.152;2024-02-21T10:40:20;1.55;;;0.40;;
84474;SDS011;74699;43.068;0.152;2024-02-21T10:42:46;1.92;;;0.50;;
84474;SDS011;74699;43.068;0.152;2024-02-21T10:45:13;1.10;;;0.40;;
84474;SDS011;74699;43.068;0.152;2024-02-21T10:47:39;1.58;;;0.40;;
84474;SDS011;74699;43.068;0.152;2024-02-21T10:50:07;0.60;;;0.20;;
84474;SDS011;74699;43.068;0.152;2024-02-21T10:52:42;0.88;;;0.20;;
84474;SDS011;74699;43.068;0.152;2024-02-21T10:55:56;1.77;;;0.20;;
84474;SDS011;74699;43.068;0.152;2024-02-21T10:58:01;1.00;;;0.20;;
84474;SDS011;74699;43.068;0.152;2024-02-21T11:00:28;1.33;;;0.32;;
84474;SDS011;74699;43.068;0.152;2024-02-21T11:02:56;2.00;;;0.47;;
84474;SDS011;74699;43.068;0.152;2024-02-21T11:05:22;2.55;;;0.40;;
84474;SDS011;74699;43.068;0.152;2024-02-21T11:07:48;1.35;;;0.22;;
84474;SDS011;74699;43.068;0.152;2024-02-21T11:10:24;2.55;;;0.40;;
84474;SDS011;74699;43.068;0.152;2024-02-21T11:12:54;0.82;;;0.20;;
84474;SDS011;74699;43.068;0.152;2024-02-21T11:15:24;0.85;;;0.20;;
84474;SDS011;74699;43.068;0.152;2024-02-21T11:17:55;1.25;;;0.32;;
84474;SDS011;74699;43.068;0.152;2024-02-21T11:20:21;1.48;;;0.50;;
84474;SDS011;74699;43.068;0.152;2024-02-21T11:22:57;1.55;;;0.40;;
84474;SDS011;74699;43.068;0.152;2024-02-21T11:25:24;1.73;;;0.38;;
84474;SDS011;74699;43.068;0.152;2024-02-21T11:27:58;1.25;;;0.40;;
84474;SDS011;74699;43.068;0.152;2024-02-21T11:30:29;1.02;;;0.25;;
84474;SDS011;74699;43.068;0.152;2024-02-21T11:33:16;1.00;;;0.30;;
84474;SDS011;74699;43.068;0.152;2024-02-21T11:35:42;1.40;;;0.43;;
84474;SDS011;74699;43.068;0.152;2024-02-21T11:38:08;2.30;;;0.45;;
84474;SDS011;74699;43.068;0.152;2024-02-21T11:40:38;1.45;;;0.40;;
84474;SDS011;74699;43.068;0.152;2024-02-21T11:43:07;2.72;;;0.70;;
84474;SDS011;74699;43.068;0.152;2024-02-21T11:45:33;1.23;;;0.30;;
84474;SDS011;74699;43.068;0.152;2024-02-21T11:47:59;0.90;;;0.40;;
84474;SDS011;74699;43.068;0.152;2024-02-21T11:50:28;2.50;;;0.47;;
84474;SDS011;74699;43.068;0.152;2024-02-21T11:52:54;1.33;;;0.50;;
84474;SDS011;74699;43.068;0.152;2024-02-21T11:55:21;1.45;;;0.40;;
84474;SDS011;74699;43.068;0.152;2024-02-21T11:57:48;1.60;;;0.20;;
84474;SDS011;74699;43.068;0.152;2024-02-21T12:00:17;2.15;;;0.50;;
84474;SDS011;74699;43.068;0.152;2024-02-21T12:02:47;2.83;;;0.52;;
84474;SDS011;74699;43.068;0.152;2024-02-21T12:05:13;1.33;;;0.40;;
84474;SDS011;74699;43.068;0.152;2024-02-21T12:07:40;1.25;;;0.40;;
84474;SDS011;74699;43.068;0.152;2024-02-21T12:10:12;2.13;;;0.50;;
84474;SDS011;74699;43.068;0.152;2024-02-21T12:12:39;1.80;;;0.50;;
84474;SDS011;74699;43.068;0.152;2024-02-21T12:15:05;1.80;;;0.60;;
84474;SDS011;74699;43.068;0.152;2024-02-21T12:17:35;1.58;;;0.70;;
84474;SDS011;74699;43.068;0.152;2024-02-21T12:20:02;1.85;;;0.40;;
84474;SDS011;74699;43.068;0.152;2024-02-21T12:22:33;1.70;;;0.43;;
84474;SDS011;74699;43.068;0.152;2024-02-21T12:24:59;2.35;;;0.50;;
84474;SDS011;74699;43.068;0.152;2024-02-21T12:27:25;3.75;;;0.60;;
84474;SDS011;74699;43.068;0.152;2024-02-21T12:29:51;0.95;;;0.22;;
84474;SDS011;74699;43.068;0.152;2024-02-21T12:32:17;1.92;;;0.55;;
84474;SDS011;74699;43.068;0.152;2024-02-21T12:34:43;1.88;;;0.52;;
84474;SDS011;74699;43.068;0.152;2024-02-21T12:37:10;1.10;;;0.30;;
84474;SDS011;74699;43.068;0.152;2024-02-21T12:39:41;1.60;;;0.40;;
84474;SDS011;74699;43.068;0.152;2024-02-21T12:42:07;2.08;;;0.47;;
84474;SDS011;74699;43.068;0.152;2024-02-21T12:44:34;2.20;;;0.47;;
84474;SDS011;74699;43.068;0.152;2024-02-21T12:47:00;1.10;;;0.35;;
84474;SDS011;74699;43.068;0.152;2024-02-21T12:49:26;1.92;;;0.40;;
84474;SDS011;74699;43.068;0.152;2024-02-21T12:51:54;1.67;;;0.40;;
84474;SDS011;74699;43.068;0.152;2024-02-21T12:54:21;1.35;;;0.47;;
84474;SDS011;74699;43.068;0.152;2024-02-21T12:56:47;1.40;;;0.40;;
84474;SDS011;74699;43.068;0.152;2024-02-21T12:59:13;2.00;;;0.38;;
84474;SDS011;74699;43.068;0.152;2024-02-21T13:01:39;1.70;;;0.40;;
84474;SDS011;74699;43.068;0.152;2024-02-21T13:04:05;1.67;;;0.55;;
84474;SDS011;74699;43.068;0.152;2024-02-21T13:06:31;1.70;;;0.47;;
84474;SDS011;74699;43.068;0.152;2024-02-21T13:08:57;1.88;;;0.68;;
84474;SDS011;74699;43.068;0.152;2024-02-21T13:11:24;1.67;;;0.60;;
84474;SDS011;74699;43.068;0.152;2024-02-21T13:13:53;1.67;;;0.40;;
84474;SDS011;74699;43.068;0.152;2024-02-21T13:16:19;3.40;;;0.60;;
84474;SDS011;74699;43.068;0.152;2024-02-21T13:18:45;2.90;;;0.60;;
84474;SDS011;74699;43.068;0.152;2024-02-21T13:21:12;2.05;;;0.60;;
84474;SDS011;74699;43.068;0.152;2024-02-21T13:23:39;1.30;;;0.30;;
84474;SDS011;74699;43.068;0.152;2024-02-21T13:26:05;1.45;;;0.40;;
84474;SDS011;74699;43.068;0.152;2024-02-21T13:28:31;2.03;;;0.40;;
84474;SDS011;74699;43.068;0.152;2024-02-21T13:30:57;1.92;;;0.82;;
84474;SDS011;74699;43.068;0.152;2024-02-21T13:33:23;2.00;;;0.80;;
84474;SDS011;74699;43.068;0.152;2024-02-21T13:35:49;1.10;;;0.40;;
84474;SDS011;74699;43.068;0.152;2024-02-21T13:38:15;1.13;;;0.40;;
84474;SDS011;74699;43.068;0.152;2024-02-21T13:40:43;1.15;;;0.30;;
84474;SDS011;74699;43.068;0.152;2024-02-21T13:45:36;1.40;;;0.40;;
84474;SDS011;74699;43.068;0.152;2024-02-21T13:48:02;2.75;;;0.30;;
84474;SDS011;74699;43.068;0.152;2024-02-21T13:50:31;1.77;;;0.40;;
84474;SDS011;74699;43.068;0.152;2024-02-21T13:52:59;2.00;;;0.50;;
84474;SDS011;74699;43.068;0.152;2024-02-21T13:57:52;1.60;;;0.50;;
84474;SDS011;74699;43.068;0.152;2024-02-21T14:00:18;1.08;;;0.40;;
84474;SDS011;74699;43.068;0.152;2024-02-21T14:02:45;1.88;;;0.50;;
84474;SDS011;74699;43.068;0.152;2024-02-21T14:05:11;1.58;;;0.50;;
84474;SDS011;74699;43.068;0.152;2024-02-21T14:07:39;1.80;;;0.43;;
84474;SDS011;74699;43.068;0.152;2024-02-21T14:10:05;1.75;;;0.43;;
84474;SDS011;74699;43.068;0.152;2024-02-21T14:12:32;2.72;;;0.70;;
84474;SDS011;74699;43.068;0.152;2024-02-21T14:14:58;2.13;;;0.57;;
84474;SDS011;74699;43.068;0.152;2024-02-21T14:17:24;1.58;;;0.47;;
84474;SDS011;74699;43.068;0.152;2024-02-21T14:19:50;1.52;;;0.43;;
84474;SDS011;74699;43.068;0.152;2024-02-21T14:22:16;1.00;;;0.40;;
84474;SDS011;74699;43.068;0.152;2024-02-21T14:24:42;2.67;;;0.60;;
84474;SDS011;74699;43.068;0.152;2024-02-21T14:27:08;3.58;;;1.00;;
84474;SDS011;74699;43.068;0.152;2024-02-21T14:29:34;3.00;;;1.20;;
84474;SDS011;74699;43.068;0.152;2024-02-21T14:32:01;3.80;;;1.55;;
84474;SDS011;74699;43.068;0.152;2024-02-21T14:34:27;2.25;;;0.82;;
84474;SDS011;74699;43.068;0.152;2024-02-21T14:36:53;5.82;;;2.00;;
84474;SDS011;74699;43.068;0.152;2024-02-21T14:39:19;2.28;;;1.00;;
84474;SDS011;74699;43.068;0.152;2024-02-21T14:41:45;3.03;;;1.05;;
84474;SDS011;74699;43.068;0.152;2024-02-21T14:44:11;2.67;;;1.08;;
84474;SDS011;74699;43.068;0.152;2024-02-21T14:46:39;3.00;;;0.90;;
84474;SDS011;74699;43.068;0.152;2024-02-21T14:49:05;2.30;;;0.60;;
84474;SDS011;74699;43.068;0.152;2024-02-21T14:51:31;1.58;;;0.52;;
84474;SDS011;74699;43.068;0.152;2024-02-21T14:56:24;1.23;;;0.55;;
84474;SDS011;74699;43.068;0.152;2024-02-21T14:58:50;1.80;;;0.75;;